sensor_id;sensor_type;location;lat;lon;timestamp;P1;durP1;ratioP1;P2;durP2;ratioP2
40320;SDS011;26027;51.454;6.628;2022-10-22T00:01:17;1.02;;;1.00;;
40320;SDS011;26027;51.454;6.628;2022-10-22T00:03:44;1.13;;;1.02;;
40320;SDS011;26027;51.454;6.628;2022-10-22T00:06:10;0.93;;;0.93;;
40320;SDS011;26027;51.454;6.628;2022-10-22T00:08:36;1.05;;;1.05;;
40320;SDS011;26027;51.454;6.628;2022-10-22T00:11:09;1.25;;;1.17;;
40320;SDS011;26027;51.454;6.628;2022-10-22T00:13:35;1.20;;;1.20;;
40320;SDS011;26027;51.454;6.628;2022-10-22T00:16:01;1.20;;;1.10;;
40320;SDS011;26027;51.454;6.628;2022-10-22T00:18:27;1.30;;;1.23;;
40320;SDS011;26027;51.454;6.628;2022-10-22T00:20:53;1.20;;;1.20;;
40320;SDS011;26027;51.454;6.628;2022-10-22T00:23:20;1.00;;;1.00;;
40320;SDS011;26027;51.454;6.628;2022-10-22T00:25:46;1.00;;;1.00;;
40320;SDS011;26027;51.454;6.628;2022-10-22T00:28:12;1.00;;;1.00;;
40320;SDS011;26027;51.454;6.628;2022-10-22T00:30:39;1.10;;;1.10;;
40320;SDS011;26027;51.454;6.628;2022-10-22T00:33:05;1.00;;;1.00;;
40320;SDS011;26027;51.454;6.628;2022-10-22T00:35:31;0.80;;;0.80;;
40320;SDS011;26027;51.454;6.628;2022-10-22T00:37:57;0.98;;;0.98;;
40320;SDS011;26027;51.454;6.628;2022-10-22T00:40:23;0.93;;;0.93;;
40320;SDS011;26027;51.454;6.628;2022-10-22T00:42:49;0.93;;;0.93;;
40320;SDS011;26027;51.454;6.628;2022-10-22T00:45:20;0.90;;;0.90;;
40320;SDS011;26027;51.454;6.628;2022-10-22T00:47:54;1.00;;;1.00;;
40320;SDS011;26027;51.454;6.628;2022-10-22T00:52:56;0.90;;;0.90;;
40320;SDS011;26027;51.454;6.628;2022-10-22T00:55:23;1.10;;;1.10;;
40320;SDS011;26027;51.454;6.628;2022-10-22T00:57:49;1.20;;;1.20;;
40320;SDS011;26027;51.454;6.628;2022-10-22T01:00:16;1.08;;;1.08;;
40320;SDS011;26027;51.454;6.628;2022-10-22T01:02:42;0.90;;;0.90;;
40320;SDS011;26027;51.454;6.628;2022-10-22T01:05:08;1.38;;;1.27;;
40320;SDS011;26027;51.454;6.628;2022-10-22T01:07:36;1.00;;;1.00;;
40320;SDS011;26027;51.454;6.628;2022-10-22T01:10:10;1.02;;;1.02;;
40320;SDS011;26027;51.454;6.628;2022-10-22T01:12:43;1.13;;;1.10;;
40320;SDS011;26027;51.454;6.628;2022-10-22T01:17:40;1.05;;;1.05;;
40320;SDS011;26027;51.454;6.628;2022-10-22T01:22:38;0.90;;;0.90;;
40320;SDS011;26027;51.454;6.628;2022-10-22T01:30:05;0.98;;;0.98;;
40320;SDS011;26027;51.454;6.628;2022-10-22T01:32:32;0.98;;;0.98;;
40320;SDS011;26027;51.454;6.628;2022-10-22T01:35:04;1.20;;;1.20;;
40320;SDS011;26027;51.454;6.628;2022-10-22T01:37:32;1.00;;;1.00;;
40320;SDS011;26027;51.454;6.628;2022-10-22T01:39:58;0.90;;;0.90;;
40320;SDS011;26027;51.454;6.628;2022-10-22T01:42:25;1.05;;;1.05;;
40320;SDS011;26027;51.454;6.628;2022-10-22T01:44:51;1.00;;;1.00;;
40320;SDS011;26027;51.454;6.628;2022-10-22T01:47:23;1.10;;;1.10;;
40320;SDS011;26027;51.454;6.628;2022-10-22T01:58:13;1.38;;;1.00;;
40320;SDS011;26027;51.454;6.628;2022-10-22T02:00:44;1.35;;;0.95;;
40320;SDS011;26027;51.454;6.628;2022-10-22T02:03:13;0.93;;;0.93;;
40320;SDS011;26027;51.454;6.628;2022-10-22T02:05:58;0.90;;;0.90;;
40320;SDS011;26027;51.454;6.628;2022-10-22T02:08:28;0.88;;;0.88;;
40320;SDS011;26027;51.454;6.628;2022-10-22T02:10:55;0.80;;;0.80;;
40320;SDS011;26027;51.454;6.628;2022-10-22T02:13:27;1.10;;;1.10;;
40320;SDS011;26027;51.454;6.628;2022-10-22T02:15:54;0.93;;;0.93;;
40320;SDS011;26027;51.454;6.628;2022-10-22T02:18:21;1.00;;;1.00;;
40320;SDS011;26027;51.454;6.628;2022-10-22T02:20:48;0.90;;;0.90;;
40320;SDS011;26027;51.454;6.628;2022-10-22T02:23:14;0.80;;;0.80;;
40320;SDS011;26027;51.454;6.628;2022-10-22T02:25:41;1.00;;;1.00;;
40320;SDS011;26027;51.454;6.628;2022-10-22T02:28:12;0.90;;;0.90;;
40320;SDS011;26027;51.454;6.628;2022-10-22T02:30:38;0.90;;;0.90;;
40320;SDS011;26027;51.454;6.628;2022-10-22T02:33:08;0.93;;;0.93;;
40320;SDS011;26027;51.454;6.628;2022-10-22T02:35:36;0.98;;;0.98;;
40320;SDS011;26027;51.454;6.628;2022-10-22T02:38:03;0.90;;;0.90;;
40320;SDS011;26027;51.454;6.628;2022-10-22T02:40:29;0.80;;;0.80;;
40320;SDS011;26027;51.454;6.628;2022-10-22T02:42:55;0.93;;;0.93;;
40320;SDS011;26027;51.454;6.628;2022-10-22T02:45:21;0.88;;;0.88;;
40320;SDS011;26027;51.454;6.628;2022-10-22T02:47:48;1.00;;;1.00;;
40320;SDS011;26027;51.454;6.628;2022-10-22T02:50:14;0.90;;;0.90;;
40320;SDS011;26027;51.454;6.628;2022-10-22T02:52:40;0.90;;;0.90;;
40320;SDS011;26027;51.454;6.628;2022-10-22T02:55:06;0.85;;;0.85;;
40320;SDS011;26027;51.454;6.628;2022-10-22T02:57:33;0.90;;;0.90;;
40320;SDS011;26027;51.454;6.628;2022-10-22T02:59:59;0.80;;;0.80;;
40320;SDS011;26027;51.454;6.628;2022-10-22T03:02:25;0.80;;;0.80;;
40320;SDS011;26027;51.454;6.628;2022-10-22T03:04:51;1.00;;;1.00;;
40320;SDS011;26027;51.454;6.628;2022-10-22T03:07:17;1.20;;;1.10;;
40320;SDS011;26027;51.454;6.628;2022-10-22T03:09:43;0.85;;;0.80;;
40320;SDS011;26027;51.454;6.628;2022-10-22T03:12:09;1.05;;;0.70;;
40320;SDS011;26027;51.454;6.628;2022-10-22T03:14:35;0.70;;;0.70;;
40320;SDS011;26027;51.454;6.628;2022-10-22T03:17:01;0.80;;;0.80;;
40320;SDS011;26027;51.454;6.628;2022-10-22T03:19:27;0.90;;;0.90;;
40320;SDS011;26027;51.454;6.628;2022-10-22T03:21:57;1.00;;;1.00;;
40320;SDS011;26027;51.454;6.628;2022-10-22T03:24:24;1.40;;;1.02;;
40320;SDS011;26027;51.454;6.628;2022-10-22T03:26:52;0.77;;;0.77;;
40320;SDS011;26027;51.454;6.628;2022-10-22T03:29:18;0.90;;;0.90;;
40320;SDS011;26027;51.454;6.628;2022-10-22T03:31:46;0.93;;;0.93;;
40320;SDS011;26027;51.454;6.628;2022-10-22T03:34:12;0.90;;;0.90;;
40320;SDS011;26027;51.454;6.628;2022-10-22T03:36:39;0.77;;;0.77;;
40320;SDS011;26027;51.454;6.628;2022-10-22T03:39:06;1.00;;;1.00;;
40320;SDS011;26027;51.454;6.628;2022-10-22T03:41:32;0.70;;;0.70;;
40320;SDS011;26027;51.454;6.628;2022-10-22T03:43:59;0.82;;;0.82;;
40320;SDS011;26027;51.454;6.628;2022-10-22T03:46:25;0.80;;;0.80;;
40320;SDS011;26027;51.454;6.628;2022-10-22T03:48:51;0.90;;;0.90;;
40320;SDS011;26027;51.454;6.628;2022-10-22T03:51:17;0.80;;;0.80;;
40320;SDS011;26027;51.454;6.628;2022-10-22T03:53:43;1.00;;;1.00;;
40320;SDS011;26027;51.454;6.628;2022-10-22T03:56:09;0.90;;;0.90;;
40320;SDS011;26027;51.454;6.628;2022-10-22T03:58:36;1.00;;;1.00;;
40320;SDS011;26027;51.454;6.628;2022-10-22T04:01:03;0.90;;;0.90;;
40320;SDS011;26027;51.454;6.628;2022-10-22T04:03:29;0.90;;;0.90;;
40320;SDS011;26027;51.454;6.628;2022-10-22T04:05:59;0.90;;;0.90;;
40320;SDS011;26027;51.454;6.628;2022-10-22T04:08:25;0.90;;;0.90;;
40320;SDS011;26027;51.454;6.628;2022-10-22T04:10:51;1.08;;;1.08;;
40320;SDS011;26027;51.454;6.628;2022-10-22T04:13:17;0.70;;;0.70;;
40320;SDS011;26027;51.454;6.628;2022-10-22T04:15:43;0.70;;;0.70;;
40320;SDS011;26027;51.454;6.628;2022-10-22T04:18:09;0.88;;;0.88;;
40320;SDS011;26027;51.454;6.628;2022-10-22T04:20:35;0.80;;;0.80;;
40320;SDS011;26027;51.454;6.628;2022-10-22T04:23:01;0.90;;;0.90;;
40320;SDS011;26027;51.454;6.628;2022-10-22T04:25:27;0.90;;;0.90;;
40320;SDS011;26027;51.454;6.628;2022-10-22T04:27:53;0.70;;;0.70;;
40320;SDS011;26027;51.454;6.628;2022-10-22T04:30:19;0.80;;;0.80;;
40320;SDS011;26027;51.454;6.628;2022-10-22T04:32:45;1.00;;;1.00;;
40320;SDS011;26027;51.454;6.628;2022-10-22T04:35:11;1.05;;;1.05;;
40320;SDS011;26027;51.454;6.628;2022-10-22T04:37:37;0.73;;;0.73;;
40320;SDS011;26027;51.454;6.628;2022-10-22T04:40:03;0.93;;;0.93;;
40320;SDS011;26027;51.454;6.628;2022-10-22T04:42:30;0.93;;;0.93;;
40320;SDS011;26027;51.454;6.628;2022-10-22T04:44:56;0.80;;;0.80;;
40320;SDS011;26027;51.454;6.628;2022-10-22T04:47:22;0.80;;;0.80;;
40320;SDS011;26027;51.454;6.628;2022-10-22T04:49:48;0.60;;;0.60;;
40320;SDS011;26027;51.454;6.628;2022-10-22T04:52:14;0.80;;;0.80;;
40320;SDS011;26027;51.454;6.628;2022-10-22T04:54:40;0.90;;;0.90;;
40320;SDS011;26027;51.454;6.628;2022-10-22T04:57:06;0.80;;;0.80;;
40320;SDS011;26027;51.454;6.628;2022-10-22T04:59:32;0.85;;;0.85;;
40320;SDS011;26027;51.454;6.628;2022-10-22T05:01:58;0.90;;;0.90;;
40320;SDS011;26027;51.454;6.628;2022-10-22T05:04:24;0.73;;;0.73;;
40320;SDS011;26027;51.454;6.628;2022-10-22T05:06:50;0.90;;;0.90;;
40320;SDS011;26027;51.454;6.628;2022-10-22T05:09:17;0.70;;;0.70;;
40320;SDS011;26027;51.454;6.628;2022-10-22T05:11:43;0.88;;;0.88;;
40320;SDS011;26027;51.454;6.628;2022-10-22T05:14:12;0.75;;;0.75;;
40320;SDS011;26027;51.454;6.628;2022-10-22T05:16:38;0.70;;;0.70;;
40320;SDS011;26027;51.454;6.628;2022-10-22T05:19:04;0.98;;;0.98;;
40320;SDS011;26027;51.454;6.628;2022-10-22T05:21:31;0.90;;;0.90;;
40320;SDS011;26027;51.454;6.628;2022-10-22T05:23:57;0.80;;;0.80;;
40320;SDS011;26027;51.454;6.628;2022-10-22T05:26:27;0.60;;;0.60;;
40320;SDS011;26027;51.454;6.628;2022-10-22T05:28:53;0.70;;;0.70;;
40320;SDS011;26027;51.454;6.628;2022-10-22T05:31:19;0.70;;;0.70;;
40320;SDS011;26027;51.454;6.628;2022-10-22T05:33:45;0.80;;;0.80;;
40320;SDS011;26027;51.454;6.628;2022-10-22T05:36:12;0.80;;;0.80;;
40320;SDS011;26027;51.454;6.628;2022-10-22T05:38:38;0.80;;;0.80;;
40320;SDS011;26027;51.454;6.628;2022-10-22T05:41:05;0.82;;;0.82;;
40320;SDS011;26027;51.454;6.628;2022-10-22T05:43:32;0.73;;;0.73;;
40320;SDS011;26027;51.454;6.628;2022-10-22T05:46:05;0.82;;;0.82;;
40320;SDS011;26027;51.454;6.628;2022-10-22T05:48:31;0.90;;;0.90;;
40320;SDS011;26027;51.454;6.628;2022-10-22T05:51:05;0.80;;;0.77;;
40320;SDS011;26027;51.454;6.628;2022-10-22T05:53:31;0.80;;;0.80;;
40320;SDS011;26027;51.454;6.628;2022-10-22T05:56:01;0.77;;;0.77;;
40320;SDS011;26027;51.454;6.628;2022-10-22T05:58:28;0.80;;;0.80;;
40320;SDS011;26027;51.454;6.628;2022-10-22T06:00:54;0.80;;;0.80;;
40320;SDS011;26027;51.454;6.628;2022-10-22T06:03:25;0.75;;;0.75;;
40320;SDS011;26027;51.454;6.628;2022-10-22T06:05:52;0.80;;;0.80;;
40320;SDS011;26027;51.454;6.628;2022-10-22T06:08:18;0.85;;;0.85;;
40320;SDS011;26027;51.454;6.628;2022-10-22T06:10:44;0.82;;;0.82;;
40320;SDS011;26027;51.454;6.628;2022-10-22T06:13:10;0.70;;;0.70;;
40320;SDS011;26027;51.454;6.628;2022-10-22T06:15:36;0.60;;;0.60;;
40320;SDS011;26027;51.454;6.628;2022-10-22T06:18:02;0.77;;;0.77;;
40320;SDS011;26027;51.454;6.628;2022-10-22T06:20:28;0.70;;;0.70;;
40320;SDS011;26027;51.454;6.628;2022-10-22T06:22:54;0.77;;;0.77;;
40320;SDS011;26027;51.454;6.628;2022-10-22T06:25:20;0.80;;;0.80;;
40320;SDS011;26027;51.454;6.628;2022-10-22T06:27:49;0.85;;;0.85;;
40320;SDS011;26027;51.454;6.628;2022-10-22T06:30:15;1.10;;;1.10;;
40320;SDS011;26027;51.454;6.628;2022-10-22T06:32:42;0.65;;;0.65;;
40320;SDS011;26027;51.454;6.628;2022-10-22T06:35:08;0.70;;;0.70;;
40320;SDS011;26027;51.454;6.628;2022-10-22T06:37:34;0.70;;;0.70;;
40320;SDS011;26027;51.454;6.628;2022-10-22T06:40:00;0.90;;;0.90;;
40320;SDS011;26027;51.454;6.628;2022-10-22T06:42:26;0.77;;;0.77;;
40320;SDS011;26027;51.454;6.628;2022-10-22T06:44:53;0.70;;;0.70;;
40320;SDS011;26027;51.454;6.628;2022-10-22T06:47:19;0.80;;;0.80;;
40320;SDS011;26027;51.454;6.628;2022-10-22T06:49:45;0.85;;;0.85;;
40320;SDS011;26027;51.454;6.628;2022-10-22T06:52:11;0.80;;;0.80;;
40320;SDS011;26027;51.454;6.628;2022-10-22T06:54:37;0.85;;;0.82;;
40320;SDS011;26027;51.454;6.628;2022-10-22T06:57:03;0.82;;;0.82;;
40320;SDS011;26027;51.454;6.628;2022-10-22T06:59:29;0.70;;;0.70;;
40320;SDS011;26027;51.454;6.628;2022-10-22T07:01:55;0.70;;;0.70;;
40320;SDS011;26027;51.454;6.628;2022-10-22T07:04:21;0.80;;;0.80;;
40320;SDS011;26027;51.454;6.628;2022-10-22T07:06:47;0.90;;;0.90;;
40320;SDS011;26027;51.454;6.628;2022-10-22T07:09:13;0.82;;;0.82;;
40320;SDS011;26027;51.454;6.628;2022-10-22T07:11:40;0.70;;;0.70;;
40320;SDS011;26027;51.454;6.628;2022-10-22T07:14:06;0.70;;;0.70;;
40320;SDS011;26027;51.454;6.628;2022-10-22T07:16:32;0.80;;;0.80;;
40320;SDS011;26027;51.454;6.628;2022-10-22T07:19:02;0.85;;;0.85;;
40320;SDS011;26027;51.454;6.628;2022-10-22T07:21:28;0.80;;;0.80;;
40320;SDS011;26027;51.454;6.628;2022-10-22T07:23:55;0.93;;;0.93;;
40320;SDS011;26027;51.454;6.628;2022-10-22T07:26:21;0.70;;;0.70;;
40320;SDS011;26027;51.454;6.628;2022-10-22T07:28:49;0.77;;;0.77;;
40320;SDS011;26027;51.454;6.628;2022-10-22T07:31:16;0.75;;;0.75;;
40320;SDS011;26027;51.454;6.628;2022-10-22T07:33:42;0.70;;;0.70;;
40320;SDS011;26027;51.454;6.628;2022-10-22T07:36:10;0.95;;;0.95;;
40320;SDS011;26027;51.454;6.628;2022-10-22T07:38:41;0.80;;;0.80;;
40320;SDS011;26027;51.454;6.628;2022-10-22T07:41:07;0.88;;;0.70;;
40320;SDS011;26027;51.454;6.628;2022-10-22T07:43:33;0.80;;;0.80;;
40320;SDS011;26027;51.454;6.628;2022-10-22T07:45:59;0.70;;;0.70;;
40320;SDS011;26027;51.454;6.628;2022-10-22T07:48:26;0.70;;;0.70;;
40320;SDS011;26027;51.454;6.628;2022-10-22T07:50:52;0.65;;;0.65;;
40320;SDS011;26027;51.454;6.628;2022-10-22T07:53:19;0.80;;;0.80;;
40320;SDS011;26027;51.454;6.628;2022-10-22T07:55:48;0.77;;;0.77;;
40320;SDS011;26027;51.454;6.628;2022-10-22T07:58:15;0.50;;;0.50;;
40320;SDS011;26027;51.454;6.628;2022-10-22T08:00:41;0.70;;;0.70;;
40320;SDS011;26027;51.454;6.628;2022-10-22T08:03:08;0.70;;;0.70;;
40320;SDS011;26027;51.454;6.628;2022-10-22T08:05:35;0.70;;;0.70;;
40320;SDS011;26027;51.454;6.628;2022-10-22T08:08:03;0.50;;;0.50;;
40320;SDS011;26027;51.454;6.628;2022-10-22T08:10:29;0.90;;;0.90;;
40320;SDS011;26027;51.454;6.628;2022-10-22T08:12:55;0.80;;;0.80;;
40320;SDS011;26027;51.454;6.628;2022-10-22T08:15:21;0.70;;;0.70;;
40320;SDS011;26027;51.454;6.628;2022-10-22T08:17:49;0.70;;;0.70;;
40320;SDS011;26027;51.454;6.628;2022-10-22T08:20:15;0.60;;;0.60;;
40320;SDS011;26027;51.454;6.628;2022-10-22T08:22:41;0.60;;;0.60;;
40320;SDS011;26027;51.454;6.628;2022-10-22T08:25:07;0.70;;;0.70;;
40320;SDS011;26027;51.454;6.628;2022-10-22T08:27:33;0.70;;;0.70;;
40320;SDS011;26027;51.454;6.628;2022-10-22T08:29:59;0.80;;;0.80;;
40320;SDS011;26027;51.454;6.628;2022-10-22T08:32:25;1.00;;;0.98;;
40320;SDS011;26027;51.454;6.628;2022-10-22T08:34:51;0.70;;;0.70;;
40320;SDS011;26027;51.454;6.628;2022-10-22T08:37:17;0.88;;;0.88;;
40320;SDS011;26027;51.454;6.628;2022-10-22T08:39:43;0.70;;;0.70;;
40320;SDS011;26027;51.454;6.628;2022-10-22T08:42:18;0.73;;;0.73;;
40320;SDS011;26027;51.454;6.628;2022-10-22T08:50:26;0.73;;;0.73;;
40320;SDS011;26027;51.454;6.628;2022-10-22T08:52:55;0.70;;;0.70;;
40320;SDS011;26027;51.454;6.628;2022-10-22T08:55:22;0.65;;;0.65;;
40320;SDS011;26027;51.454;6.628;2022-10-22T08:58:00;0.90;;;0.90;;
40320;SDS011;26027;51.454;6.628;2022-10-22T09:00:35;0.70;;;0.70;;
40320;SDS011;26027;51.454;6.628;2022-10-22T09:03:18;0.73;;;0.73;;
40320;SDS011;26027;51.454;6.628;2022-10-22T09:08:14;0.90;;;0.90;;
40320;SDS011;26027;51.454;6.628;2022-10-22T09:10:42;0.70;;;0.70;;
40320;SDS011;26027;51.454;6.628;2022-10-22T09:13:10;0.70;;;0.70;;
40320;SDS011;26027;51.454;6.628;2022-10-22T09:15:38;0.73;;;0.73;;
40320;SDS011;26027;51.454;6.628;2022-10-22T09:20:52;0.80;;;0.80;;
40320;SDS011;26027;51.454;6.628;2022-10-22T09:25:48;0.77;;;0.77;;
40320;SDS011;26027;51.454;6.628;2022-10-22T09:28:15;0.57;;;0.57;;
40320;SDS011;26027;51.454;6.628;2022-10-22T09:30:41;0.70;;;0.70;;
40320;SDS011;26027;51.454;6.628;2022-10-22T09:33:22;0.73;;;0.73;;
40320;SDS011;26027;51.454;6.628;2022-10-22T09:35:56;0.55;;;0.55;;
40320;SDS011;26027;51.454;6.628;2022-10-22T09:38:29;0.82;;;0.82;;
40320;SDS011;26027;51.454;6.628;2022-10-22T09:40:57;0.65;;;0.65;;
40320;SDS011;26027;51.454;6.628;2022-10-22T09:43:23;0.70;;;0.70;;
40320;SDS011;26027;51.454;6.628;2022-10-22T09:45:54;0.77;;;0.77;;
40320;SDS011;26027;51.454;6.628;2022-10-22T09:48:22;0.70;;;0.70;;
40320;SDS011;26027;51.454;6.628;2022-10-22T09:50:56;0.65;;;0.65;;
40320;SDS011;26027;51.454;6.628;2022-10-22T09:53:31;0.75;;;0.75;;
40320;SDS011;26027;51.454;6.628;2022-10-22T09:56:00;0.70;;;0.70;;
40320;SDS011;26027;51.454;6.628;2022-10-22T09:58:40;0.70;;;0.70;;
40320;SDS011;26027;51.454;6.628;2022-10-22T10:01:06;0.80;;;0.80;;
40320;SDS011;26027;51.454;6.628;2022-10-22T10:03:32;0.50;;;0.50;;
40320;SDS011;26027;51.454;6.628;2022-10-22T10:05:58;0.93;;;0.93;;
40320;SDS011;26027;51.454;6.628;2022-10-22T10:08:25;0.75;;;0.75;;
40320;SDS011;26027;51.454;6.628;2022-10-22T10:10:52;0.70;;;0.70;;
40320;SDS011;26027;51.454;6.628;2022-10-22T10:16:31;0.77;;;0.77;;
40320;SDS011;26027;51.454;6.628;2022-10-22T10:18:45;0.70;;;0.70;;
40320;SDS011;26027;51.454;6.628;2022-10-22T10:21:25;0.60;;;0.60;;
40320;SDS011;26027;51.454;6.628;2022-10-22T10:26:39;0.60;;;0.60;;
40320;SDS011;26027;51.454;6.628;2022-10-22T10:29:13;0.50;;;0.50;;
40320;SDS011;26027;51.454;6.628;2022-10-22T10:34:29;0.70;;;0.70;;
40320;SDS011;26027;51.454;6.628;2022-10-22T10:42:15;0.85;;;0.85;;
40320;SDS011;26027;51.454;6.628;2022-10-22T10:45:45;0.70;;;0.70;;
40320;SDS011;26027;51.454;6.628;2022-10-22T10:52:44;0.68;;;0.68;;
40320;SDS011;26027;51.454;6.628;2022-10-22T10:55:35;0.60;;;0.60;;
40320;SDS011;26027;51.454;6.628;2022-10-22T10:58:05;0.70;;;0.70;;
40320;SDS011;26027;51.454;6.628;2022-10-22T11:00:39;0.52;;;0.52;;
40320;SDS011;26027;51.454;6.628;2022-10-22T11:05:52;0.80;;;0.80;;
40320;SDS011;26027;51.454;6.628;2022-10-22T11:08:20;0.60;;;0.60;;
40320;SDS011;26027;51.454;6.628;2022-10-22T11:10:53;0.70;;;0.70;;
40320;SDS011;26027;51.454;6.628;2022-10-22T11:15:50;0.60;;;0.60;;
40320;SDS011;26027;51.454;6.628;2022-10-22T11:18:34;0.80;;;0.80;;
40320;SDS011;26027;51.454;6.628;2022-10-22T11:21:04;0.68;;;0.68;;
40320;SDS011;26027;51.454;6.628;2022-10-22T11:23:35;0.60;;;0.60;;
40320;SDS011;26027;51.454;6.628;2022-10-22T11:26:03;0.73;;;0.73;;
40320;SDS011;26027;51.454;6.628;2022-10-22T11:30:58;0.80;;;0.80;;
40320;SDS011;26027;51.454;6.628;2022-10-22T11:33:26;0.70;;;0.70;;
40320;SDS011;26027;51.454;6.628;2022-10-22T11:35:53;0.50;;;0.50;;
40320;SDS011;26027;51.454;6.628;2022-10-22T11:38:22;0.60;;;0.60;;
40320;SDS011;26027;51.454;6.628;2022-10-22T11:40:51;0.77;;;0.77;;
40320;SDS011;26027;51.454;6.628;2022-10-22T11:43:29;0.55;;;0.55;;
40320;SDS011;26027;51.454;6.628;2022-10-22T11:46:42;0.60;;;0.60;;
40320;SDS011;26027;51.454;6.628;2022-10-22T11:48:42;0.80;;;0.80;;
40320;SDS011;26027;51.454;6.628;2022-10-22T11:53:56;0.63;;;0.63;;
40320;SDS011;26027;51.454;6.628;2022-10-22T11:56:26;0.60;;;0.60;;
40320;SDS011;26027;51.454;6.628;2022-10-22T11:58:53;0.65;;;0.65;;
40320;SDS011;26027;51.454;6.628;2022-10-22T12:04:32;0.60;;;0.60;;
40320;SDS011;26027;51.454;6.628;2022-10-22T12:06:51;0.70;;;0.70;;
40320;SDS011;26027;51.454;6.628;2022-10-22T12:09:18;0.60;;;0.60;;
40320;SDS011;26027;51.454;6.628;2022-10-22T12:11:45;0.80;;;0.80;;
40320;SDS011;26027;51.454;6.628;2022-10-22T12:14:24;0.70;;;0.70;;
40320;SDS011;26027;51.454;6.628;2022-10-22T12:19:26;0.57;;;0.57;;
40320;SDS011;26027;51.454;6.628;2022-10-22T12:21:56;0.60;;;0.60;;
40320;SDS011;26027;51.454;6.628;2022-10-22T12:24:22;0.57;;;0.57;;
40320;SDS011;26027;51.454;6.628;2022-10-22T12:26:49;0.80;;;0.80;;
40320;SDS011;26027;51.454;6.628;2022-10-22T12:29:17;0.60;;;0.60;;
40320;SDS011;26027;51.454;6.628;2022-10-22T12:31:43;0.50;;;0.50;;
40320;SDS011;26027;51.454;6.628;2022-10-22T12:34:17;0.52;;;0.52;;
40320;SDS011;26027;51.454;6.628;2022-10-22T12:36:43;0.57;;;0.57;;
40320;SDS011;26027;51.454;6.628;2022-10-22T12:39:12;0.80;;;0.80;;
40320;SDS011;26027;51.454;6.628;2022-10-22T12:41:38;0.55;;;0.55;;
40320;SDS011;26027;51.454;6.628;2022-10-22T12:44:05;0.60;;;0.60;;
40320;SDS011;26027;51.454;6.628;2022-10-22T12:46:31;0.50;;;0.50;;
40320;SDS011;26027;51.454;6.628;2022-10-22T12:49:02;0.73;;;0.73;;
40320;SDS011;26027;51.454;6.628;2022-10-22T12:51:29;0.55;;;0.55;;
40320;SDS011;26027;51.454;6.628;2022-10-22T12:53:56;0.70;;;0.70;;
40320;SDS011;26027;51.454;6.628;2022-10-22T12:56:24;0.60;;;0.60;;
40320;SDS011;26027;51.454;6.628;2022-10-22T12:58:55;0.65;;;0.65;;
40320;SDS011;26027;51.454;6.628;2022-10-22T13:01:23;0.50;;;0.50;;
40320;SDS011;26027;51.454;6.628;2022-10-22T13:03:50;0.40;;;0.40;;
40320;SDS011;26027;51.454;6.628;2022-10-22T13:08:44;0.60;;;0.60;;
40320;SDS011;26027;51.454;6.628;2022-10-22T13:11:10;0.77;;;0.77;;
40320;SDS011;26027;51.454;6.628;2022-10-22T13:16:12;0.70;;;0.70;;
40320;SDS011;26027;51.454;6.628;2022-10-22T13:18:38;0.70;;;0.70;;
40320;SDS011;26027;51.454;6.628;2022-10-22T13:21:04;0.60;;;0.60;;
40320;SDS011;26027;51.454;6.628;2022-10-22T13:23:32;0.40;;;0.40;;
40320;SDS011;26027;51.454;6.628;2022-10-22T13:26:02;0.50;;;0.50;;
40320;SDS011;26027;51.454;6.628;2022-10-22T13:28:32;0.40;;;0.40;;
40320;SDS011;26027;51.454;6.628;2022-10-22T13:30:59;0.60;;;0.60;;
40320;SDS011;26027;51.454;6.628;2022-10-22T13:33:29;0.47;;;0.47;;
40320;SDS011;26027;51.454;6.628;2022-10-22T13:35:57;0.55;;;0.55;;
40320;SDS011;26027;51.454;6.628;2022-10-22T13:38:24;0.68;;;0.68;;
40320;SDS011;26027;51.454;6.628;2022-10-22T13:40:50;0.57;;;0.57;;
40320;SDS011;26027;51.454;6.628;2022-10-22T13:43:17;0.63;;;0.63;;
40320;SDS011;26027;51.454;6.628;2022-10-22T13:45:43;0.63;;;0.63;;
40320;SDS011;26027;51.454;6.628;2022-10-22T13:48:16;0.75;;;0.75;;
40320;SDS011;26027;51.454;6.628;2022-10-22T13:50:46;0.38;;;0.38;;
40320;SDS011;26027;51.454;6.628;2022-10-22T13:53:14;0.50;;;0.50;;
40320;SDS011;26027;51.454;6.628;2022-10-22T13:55:42;0.55;;;0.55;;
40320;SDS011;26027;51.454;6.628;2022-10-22T13:58:10;0.52;;;0.52;;
40320;SDS011;26027;51.454;6.628;2022-10-22T14:00:40;0.60;;;0.60;;
40320;SDS011;26027;51.454;6.628;2022-10-22T14:03:07;0.50;;;0.50;;
40320;SDS011;26027;51.454;6.628;2022-10-22T14:05:34;0.60;;;0.60;;
40320;SDS011;26027;51.454;6.628;2022-10-22T14:08:01;0.68;;;0.68;;
40320;SDS011;26027;51.454;6.628;2022-10-22T14:10:27;0.60;;;0.60;;
40320;SDS011;26027;51.454;6.628;2022-10-22T14:12:53;0.50;;;0.50;;
40320;SDS011;26027;51.454;6.628;2022-10-22T14:15:20;0.30;;;0.30;;
40320;SDS011;26027;51.454;6.628;2022-10-22T14:17:48;0.65;;;0.65;;
40320;SDS011;26027;51.454;6.628;2022-10-22T14:20:17;0.50;;;0.50;;
40320;SDS011;26027;51.454;6.628;2022-10-22T14:22:45;0.70;;;0.70;;
40320;SDS011;26027;51.454;6.628;2022-10-22T14:25:13;0.77;;;0.77;;
40320;SDS011;26027;51.454;6.628;2022-10-22T14:27:39;0.63;;;0.63;;
40320;SDS011;26027;51.454;6.628;2022-10-22T14:30:05;0.50;;;0.50;;
40320;SDS011;26027;51.454;6.628;2022-10-22T14:32:31;0.52;;;0.52;;
40320;SDS011;26027;51.454;6.628;2022-10-22T14:34:57;0.60;;;0.60;;
40320;SDS011;26027;51.454;6.628;2022-10-22T14:37:25;0.40;;;0.40;;
40320;SDS011;26027;51.454;6.628;2022-10-22T14:39:51;0.60;;;0.60;;
40320;SDS011;26027;51.454;6.628;2022-10-22T14:42:24;0.65;;;0.65;;
40320;SDS011;26027;51.454;6.628;2022-10-22T14:44:50;0.52;;;0.52;;
40320;SDS011;26027;51.454;6.628;2022-10-22T14:47:16;0.50;;;0.50;;
40320;SDS011;26027;51.454;6.628;2022-10-22T14:49:42;0.77;;;0.77;;
40320;SDS011;26027;51.454;6.628;2022-10-22T14:52:08;0.60;;;0.60;;
40320;SDS011;26027;51.454;6.628;2022-10-22T14:54:34;0.65;;;0.65;;
40320;SDS011;26027;51.454;6.628;2022-10-22T14:57:01;0.50;;;0.50;;
40320;SDS011;26027;51.454;6.628;2022-10-22T14:59:27;0.60;;;0.60;;
40320;SDS011;26027;51.454;6.628;2022-10-22T15:01:53;0.60;;;0.60;;
40320;SDS011;26027;51.454;6.628;2022-10-22T15:04:19;0.52;;;0.52;;
40320;SDS011;26027;51.454;6.628;2022-10-22T15:06:45;0.60;;;0.60;;
40320;SDS011;26027;51.454;6.628;2022-10-22T15:09:11;0.70;;;0.70;;
40320;SDS011;26027;51.454;6.628;2022-10-22T15:11:37;0.47;;;0.47;;
40320;SDS011;26027;51.454;6.628;2022-10-22T15:14:03;0.43;;;0.43;;
40320;SDS011;26027;51.454;6.628;2022-10-22T15:16:29;0.60;;;0.60;;
40320;SDS011;26027;51.454;6.628;2022-10-22T15:18:55;0.50;;;0.50;;
40320;SDS011;26027;51.454;6.628;2022-10-22T15:21:22;0.60;;;0.60;;
40320;SDS011;26027;51.454;6.628;2022-10-22T15:23:48;0.45;;;0.45;;
40320;SDS011;26027;51.454;6.628;2022-10-22T15:26:14;0.60;;;0.60;;
40320;SDS011;26027;51.454;6.628;2022-10-22T15:28:40;0.50;;;0.50;;
40320;SDS011;26027;51.454;6.628;2022-10-22T15:31:07;0.40;;;0.40;;
40320;SDS011;26027;51.454;6.628;2022-10-22T15:33:33;0.52;;;0.52;;
40320;SDS011;26027;51.454;6.628;2022-10-22T15:36:07;0.68;;;0.68;;
40320;SDS011;26027;51.454;6.628;2022-10-22T15:38:34;0.60;;;0.60;;
40320;SDS011;26027;51.454;6.628;2022-10-22T15:41:00;0.50;;;0.50;;
40320;SDS011;26027;51.454;6.628;2022-10-22T15:43:26;0.50;;;0.50;;
40320;SDS011;26027;51.454;6.628;2022-10-22T15:46:07;0.60;;;0.60;;
40320;SDS011;26027;51.454;6.628;2022-10-22T15:48:33;0.60;;;0.60;;
40320;SDS011;26027;51.454;6.628;2022-10-22T15:50:59;0.47;;;0.47;;
40320;SDS011;26027;51.454;6.628;2022-10-22T15:53:25;0.63;;;0.63;;
40320;SDS011;26027;51.454;6.628;2022-10-22T15:55:51;0.40;;;0.40;;
40320;SDS011;26027;51.454;6.628;2022-10-22T15:58:19;0.50;;;0.50;;
40320;SDS011;26027;51.454;6.628;2022-10-22T16:00:45;0.60;;;0.60;;
40320;SDS011;26027;51.454;6.628;2022-10-22T16:03:11;0.40;;;0.40;;
40320;SDS011;26027;51.454;6.628;2022-10-22T16:05:37;0.60;;;0.60;;